sensor_id;sensor_type;location;lat;lon;timestamp;pressure;altitude;pressure_sealevel;temperature;humidity
30618;BME280;17384;51.214;9.202;2023-04-05T00:01:21;99463.50;;;-1.26;81.37
30618;BME280;17384;51.214;9.202;2023-04-05T00:03:53;99462.91;;;-1.30;80.99
30618;BME280;17384;51.214;9.202;2023-04-05T00:06:20;99453.28;;;-1.53;80.97
30618;BME280;17384;51.214;9.202;2023-04-05T00:09:17;99451.69;;;-1.56;81.19
30618;BME280;17384;51.214;9.202;2023-04-05T00:11:44;99454.97;;;-1.52;81.08
30618;BME280;17384;51.214;9.202;2023-04-05T00:14:09;99453.75;;;-1.48;80.59
30618;BME280;17384;51.214;9.202;2023-04-05T00:16:35;99458.34;;;-1.50;80.36
30618;BME280;17384;51.214;9.202;2023-04-05T00:19:02;99439.59;;;-1.60;80.56
30618;BME280;17384;51.214;9.202;2023-04-05T00:21:27;99445.09;;;-1.73;80.81
30618;BME280;17384;51.214;9.202;2023-04-05T00:23:54;99455.00;;;-1.75;81.42
30618;BME280;17384;51.214;9.202;2023-04-05T00:26:23;99456.56;;;-1.72;81.32
30618;BME280;17384;51.214;9.202;2023-04-05T00:28:49;99452.34;;;-1.75;80.76
30618;BME280;17384;51.214;9.202;2023-04-05T00:31:15;99448.22;;;-1.79;81.43
30618;BME280;17384;51.214;9.202;2023-04-05T00:33:40;99451.97;;;-1.81;81.53
30618;BME280;17384;51.214;9.202;2023-04-05T00:36:13;99459.34;;;-1.85;81.40
30618;BME280;17384;51.214;9.202;2023-04-05T00:38:39;99455.50;;;-1.92;81.33
30618;BME280;17384;51.214;9.202;2023-04-05T00:41:05;99446.78;;;-1.94;80.98
30618;BME280;17384;51.214;9.202;2023-04-05T00:43:31;99455.25;;;-2.00;81.32
30618;BME280;17384;51.214;9.202;2023-04-05T00:45:57;99457.16;;;-2.02;81.30
30618;BME280;17384;51.214;9.202;2023-04-05T00:48:23;99442.66;;;-2.09;81.44
30618;BME280;17384;51.214;9.202;2023-04-05T00:50:49;99455.69;;;-2.17;81.80
30618;BME280;17384;51.214;9.202;2023-04-05T00:53:18;99448.22;;;-2.23;81.88
30618;BME280;17384;51.214;9.202;2023-04-05T00:55:45;99457.25;;;-2.37;82.17
30618;BME280;17384;51.214;9.202;2023-04-05T00:58:12;99443.56;;;-2.44;82.41
30618;BME280;17384;51.214;9.202;2023-04-05T01:00:38;99458.78;;;-2.46;82.63
30618;BME280;17384;51.214;9.202;2023-04-05T01:03:05;99449.38;;;-2.39;82.84
30618;BME280;17384;51.214;9.202;2023-04-05T01:05:42;99445.53;;;-2.34;82.46
30618;BME280;17384;51.214;9.202;2023-04-05T01:08:28;99433.56;;;-2.40;82.28
30618;BME280;17384;51.214;9.202;2023-04-05T01:11:02;99429.56;;;-2.46;82.72
30618;BME280;17384;51.214;9.202;2023-04-05T01:13:29;99426.56;;;-2.52;82.65
30618;BME280;17384;51.214;9.202;2023-04-05T01:15:55;99435.31;;;-2.63;83.02
30618;BME280;17384;51.214;9.202;2023-04-05T01:18:21;99424.25;;;-2.57;83.23
30618;BME280;17384;51.214;9.202;2023-04-05T01:20:53;99418.19;;;-2.59;83.28
30618;BME280;17384;51.214;9.202;2023-04-05T01:24:12;99434.38;;;-2.62;82.87
30618;BME280;17384;51.214;9.202;2023-04-05T01:34:52;99419.34;;;-2.85;83.27
30618;BME280;17384;51.214;9.202;2023-04-05T01:37:25;99421.25;;;-2.87;83.86
30618;BME280;17384;51.214;9.202;2023-04-05T01:39:52;99410.41;;;-2.84;83.81
30618;BME280;17384;51.214;9.202;2023-04-05T01:42:22;99410.28;;;-2.83;84.02
30618;BME280;17384;51.214;9.202;2023-04-05T01:44:49;99414.47;;;-2.91;83.65
30618;BME280;17384;51.214;9.202;2023-04-05T01:47:16;99405.44;;;-2.89;83.43
30618;BME280;17384;51.214;9.202;2023-04-05T01:49:41;99412.28;;;-2.97;83.99
30618;BME280;17384;51.214;9.202;2023-04-05T01:52:07;99410.59;;;-2.98;83.65
30618;BME280;17384;51.214;9.202;2023-04-05T01:54:32;99399.97;;;-2.98;84.06
30618;BME280;17384;51.214;9.202;2023-04-05T01:56:58;99407.94;;;-2.98;84.36
30618;BME280;17384;51.214;9.202;2023-04-05T01:59:23;99393.22;;;-3.02;84.35
30618;BME280;17384;51.214;9.202;2023-04-05T02:01:50;99407.69;;;-3.07;84.49
30618;BME280;17384;51.214;9.202;2023-04-05T02:04:15;99399.72;;;-3.07;84.60
30618;BME280;17384;51.214;9.202;2023-04-05T02:06:41;99396.56;;;-3.12;84.66
30618;BME280;17384;51.214;9.202;2023-04-05T02:09:06;99404.00;;;-3.17;84.81
30618;BME280;17384;51.214;9.202;2023-04-05T02:11:32;99401.34;;;-3.17;84.96
30618;BME280;17384;51.214;9.202;2023-04-05T02:13:57;99392.38;;;-3.27;84.78
30618;BME280;17384;51.214;9.202;2023-04-05T02:16:22;99403.00;;;-3.27;85.18
30618;BME280;17384;51.214;9.202;2023-04-05T02:18:49;99397.00;;;-3.29;85.08
30618;BME280;17384;51.214;9.202;2023-04-05T02:21:15;99397.56;;;-3.25;84.77
30618;BME280;17384;51.214;9.202;2023-04-05T02:23:41;99398.53;;;-3.26;84.72
30618;BME280;17384;51.214;9.202;2023-04-05T02:26:06;99399.13;;;-3.34;84.54
30618;BME280;17384;51.214;9.202;2023-04-05T02:28:32;99404.03;;;-3.41;84.69
30618;BME280;17384;51.214;9.202;2023-04-05T02:30:57;99404.03;;;-3.41;84.77
30618;BME280;17384;51.214;9.202;2023-04-05T02:33:23;99398.22;;;-3.46;85.08
30618;BME280;17384;51.214;9.202;2023-04-05T02:35:49;99385.06;;;-3.47;85.08
30618;BME280;17384;51.214;9.202;2023-04-05T02:38:16;99399.16;;;-3.47;84.82
30618;BME280;17384;51.214;9.202;2023-04-05T02:40:42;99389.00;;;-3.53;84.82
30618;BME280;17384;51.214;9.202;2023-04-05T02:43:07;99390.31;;;-3.58;85.06
30618;BME280;17384;51.214;9.202;2023-04-05T02:45:33;99388.41;;;-3.56;84.59
30618;BME280;17384;51.214;9.202;2023-04-05T02:47:58;99399.56;;;-3.64;85.30
30618;BME280;17384;51.214;9.202;2023-04-05T02:50:24;99393.66;;;-3.80;84.85
30618;BME280;17384;51.214;9.202;2023-04-05T02:52:50;99392.81;;;-3.81;85.71
30618;BME280;17384;51.214;9.202;2023-04-05T02:55:16;99389.63;;;-3.73;86.22
30618;BME280;17384;51.214;9.202;2023-04-05T02:57:44;99394.13;;;-3.86;85.59
30618;BME280;17384;51.214;9.202;2023-04-05T03:00:10;99388.09;;;-3.88;86.08
30618;BME280;17384;51.214;9.202;2023-04-05T03:02:36;99398.78;;;-3.90;86.26
30618;BME280;17384;51.214;9.202;2023-04-05T03:05:04;99393.50;;;-3.90;86.16
30618;BME280;17384;51.214;9.202;2023-04-05T03:07:29;99378.13;;;-3.85;86.15
30618;BME280;17384;51.214;9.202;2023-04-05T03:09:57;99386.78;;;-3.83;85.76
30618;BME280;17384;51.214;9.202;2023-04-05T03:12:22;99380.66;;;-3.83;86.30
30618;BME280;17384;51.214;9.202;2023-04-05T03:14:48;99375.09;;;-3.80;85.90
30618;BME280;17384;51.214;9.202;2023-04-05T03:17:13;99380.94;;;-3.75;85.48
30618;BME280;17384;51.214;9.202;2023-04-05T03:19:39;99377.66;;;-3.79;85.43
30618;BME280;17384;51.214;9.202;2023-04-05T03:22:04;99384.66;;;-3.78;85.43
30618;BME280;17384;51.214;9.202;2023-04-05T03:24:30;99378.72;;;-3.81;85.53
30618;BME280;17384;51.214;9.202;2023-04-05T03:26:56;99371.50;;;-3.79;85.82
30618;BME280;17384;51.214;9.202;2023-04-05T03:29:24;99383.16;;;-3.82;85.54
30618;BME280;17384;51.214;9.202;2023-04-05T03:31:49;99374.63;;;-3.85;84.98
30618;BME280;17384;51.214;9.202;2023-04-05T03:34:15;99381.94;;;-3.89;84.70
30618;BME280;17384;51.214;9.202;2023-04-05T03:36:40;99376.97;;;-4.06;84.77
30618;BME280;17384;51.214;9.202;2023-04-05T03:39:10;99385.59;;;-4.15;84.61
30618;BME280;17384;51.214;9.202;2023-04-05T03:41:36;99370.63;;;-4.03;84.71
30618;BME280;17384;51.214;9.202;2023-04-05T03:44:02;99377.34;;;-4.11;84.72
30618;BME280;17384;51.214;9.202;2023-04-05T03:46:27;99381.25;;;-4.16;84.73
30618;BME280;17384;51.214;9.202;2023-04-05T03:48:53;99392.59;;;-4.27;84.83
30618;BME280;17384;51.214;9.202;2023-04-05T03:51:18;99376.28;;;-4.33;85.47
30618;BME280;17384;51.214;9.202;2023-04-05T03:53:44;99384.13;;;-4.32;85.57
30618;BME280;17384;51.214;9.202;2023-04-05T03:56:10;99366.53;;;-4.33;85.66
30618;BME280;17384;51.214;9.202;2023-04-05T03:58:36;99368.03;;;-4.29;85.32
30618;BME280;17384;51.214;9.202;2023-04-05T04:01:02;99364.00;;;-4.34;85.51
30618;BME280;17384;51.214;9.202;2023-04-05T04:03:28;99373.63;;;-4.33;85.70
30618;BME280;17384;51.214;9.202;2023-04-05T04:05:55;99373.53;;;-4.32;85.79
30618;BME280;17384;51.214;9.202;2023-04-05T04:08:21;99376.41;;;-4.35;85.76
30618;BME280;17384;51.214;9.202;2023-04-05T04:10:49;99370.69;;;-4.41;86.18
30618;BME280;17384;51.214;9.202;2023-04-05T04:13:15;99372.63;;;-4.44;86.23
30618;BME280;17384;51.214;9.202;2023-04-05T04:15:43;99371.19;;;-4.36;86.24
30618;BME280;17384;51.214;9.202;2023-04-05T04:18:09;99376.84;;;-4.41;86.30
30618;BME280;17384;51.214;9.202;2023-04-05T04:20:35;99374.69;;;-4.36;86.26
30618;BME280;17384;51.214;9.202;2023-04-05T04:23:00;99373.16;;;-4.38;86.60
30618;BME280;17384;51.214;9.202;2023-04-05T04:25:26;99363.72;;;-4.43;86.13
30618;BME280;17384;51.214;9.202;2023-04-05T04:27:55;99362.22;;;-4.47;86.46
30618;BME280;17384;51.214;9.202;2023-04-05T04:30:20;99356.41;;;-4.52;86.75
30618;BME280;17384;51.214;9.202;2023-04-05T04:32:47;99365.41;;;-4.41;86.71
30618;BME280;17384;51.214;9.202;2023-04-05T04:35:25;99359.06;;;-4.39;86.43
30618;BME280;17384;51.214;9.202;2023-04-05T04:38:02;99357.00;;;-4.35;86.75
30618;BME280;17384;51.214;9.202;2023-04-05T04:40:30;99362.31;;;-4.35;86.26
30618;BME280;17384;51.214;9.202;2023-04-05T04:43:08;99362.75;;;-4.41;86.94
30618;BME280;17384;51.214;9.202;2023-04-05T04:45:38;99375.22;;;-4.31;86.64
30618;BME280;17384;51.214;9.202;2023-04-05T04:48:04;99365.28;;;-4.27;86.44
30618;BME280;17384;51.214;9.202;2023-04-05T04:50:31;99371.41;;;-4.27;86.49
30618;BME280;17384;51.214;9.202;2023-04-05T04:53:00;99368.03;;;-4.29;86.45
30618;BME280;17384;51.214;9.202;2023-04-05T04:55:29;99373.84;;;-4.24;86.82
30618;BME280;17384;51.214;9.202;2023-04-05T04:57:55;99366.31;;;-4.17;86.71
30618;BME280;17384;51.214;9.202;2023-04-05T05:00:22;99374.13;;;-4.03;86.75
30618;BME280;17384;51.214;9.202;2023-04-05T05:02:49;99371.56;;;-3.92;86.32
30618;BME280;17384;51.214;9.202;2023-04-05T05:05:16;99380.88;;;-3.86;86.24
30618;BME280;17384;51.214;9.202;2023-04-05T05:07:41;99380.41;;;-3.80;86.16
30618;BME280;17384;51.214;9.202;2023-04-05T05:10:10;99390.31;;;-3.58;85.46
30618;BME280;17384;51.214;9.202;2023-04-05T05:12:37;99392.56;;;-3.41;84.44
30618;BME280;17384;51.214;9.202;2023-04-05T05:15:06;99378.81;;;-3.46;84.37
30618;BME280;17384;51.214;9.202;2023-04-05T05:17:32;99381.00;;;-3.40;84.59
30618;BME280;17384;51.214;9.202;2023-04-05T05:19:59;99385.50;;;-3.53;84.95
30618;BME280;17384;51.214;9.202;2023-04-05T05:22:25;99379.72;;;-3.58;85.36
30618;BME280;17384;51.214;9.202;2023-04-05T05:24:51;99398.88;;;-3.55;86.06
30618;BME280;17384;51.214;9.202;2023-04-05T05:27:16;99388.78;;;-3.50;85.73
30618;BME280;17384;51.214;9.202;2023-04-05T05:29:42;99393.41;;;-3.41;85.74
30618;BME280;17384;51.214;9.202;2023-04-05T05:32:08;99387.75;;;-3.12;84.89
30618;BME280;17384;51.214;9.202;2023-04-05T05:34:33;99378.00;;;-3.12;84.37
30618;BME280;17384;51.214;9.202;2023-04-05T05:36:59;99383.81;;;-2.95;84.51
30618;BME280;17384;51.214;9.202;2023-04-05T05:39:25;99381.16;;;-2.95;84.53
30618;BME280;17384;51.214;9.202;2023-04-05T05:41:50;99373.00;;;-2.81;84.41
30618;BME280;17384;51.214;9.202;2023-04-05T05:44:16;99373.91;;;-2.58;84.14
30618;BME280;17384;51.214;9.202;2023-04-05T05:46:41;99380.81;;;-2.33;84.00
30618;BME280;17384;51.214;9.202;2023-04-05T05:49:07;99373.91;;;-2.02;83.60
30618;BME280;17384;51.214;9.202;2023-04-05T05:51:33;99380.88;;;-1.68;83.24
30618;BME280;17384;51.214;9.202;2023-04-05T05:53:58;99383.56;;;-1.36;82.22
30618;BME280;17384;51.214;9.202;2023-04-05T05:56:23;99377.75;;;-1.09;80.57
30618;BME280;17384;51.214;9.202;2023-04-05T05:58:49;99379.09;;;-0.62;78.53
30618;BME280;17384;51.214;9.202;2023-04-05T06:01:15;99385.22;;;-0.20;78.01
30618;BME280;17384;51.214;9.202;2023-04-05T06:03:40;99374.13;;;0.15;75.78
30618;BME280;17384;51.214;9.202;2023-04-05T06:06:06;99377.72;;;0.45;73.86
30618;BME280;17384;51.214;9.202;2023-04-05T06:08:35;99382.97;;;0.75;72.64
30618;BME280;17384;51.214;9.202;2023-04-05T06:11:01;99379.19;;;1.07;71.63
30618;BME280;17384;51.214;9.202;2023-04-05T06:13:27;99375.25;;;1.30;71.13
30618;BME280;17384;51.214;9.202;2023-04-05T06:15:53;99377.59;;;1.52;69.86
30618;BME280;17384;51.214;9.202;2023-04-05T06:18:18;99375.56;;;1.74;69.75
30618;BME280;17384;51.214;9.202;2023-04-05T06:20:46;99369.81;;;2.06;68.34
30618;BME280;17384;51.214;9.202;2023-04-05T06:23:11;99377.09;;;2.41;67.03
30618;BME280;17384;51.214;9.202;2023-04-05T06:25:37;99380.66;;;2.59;66.18
30618;BME280;17384;51.214;9.202;2023-04-05T06:28:04;99377.69;;;2.80;65.97
30618;BME280;17384;51.214;9.202;2023-04-05T06:30:31;99381.59;;;3.03;64.07
30618;BME280;17384;51.214;9.202;2023-04-05T06:32:58;99389.03;;;3.09;63.51
30618;BME280;17384;51.214;9.202;2023-04-05T06:35:24;99376.00;;;3.58;61.74
30618;BME280;17384;51.214;9.202;2023-04-05T06:37:51;99377.03;;;3.83;60.99
30618;BME280;17384;51.214;9.202;2023-04-05T06:40:17;99385.50;;;3.96;61.28
30618;BME280;17384;51.214;9.202;2023-04-05T06:42:44;99373.50;;;3.82;61.09
30618;BME280;17384;51.214;9.202;2023-04-05T06:45:10;99380.19;;;4.12;59.73
30618;BME280;17384;51.214;9.202;2023-04-05T06:47:37;99376.25;;;4.24;59.08
30618;BME280;17384;51.214;9.202;2023-04-05T06:50:04;99385.72;;;4.45;58.49
30618;BME280;17384;51.214;9.202;2023-04-05T06:52:31;99390.31;;;4.60;58.21
30618;BME280;17384;51.214;9.202;2023-04-05T06:54:57;99385.84;;;4.93;56.46
30618;BME280;17384;51.214;9.202;2023-04-05T06:57:23;99384.22;;;5.17;55.95
30618;BME280;17384;51.214;9.202;2023-04-05T06:59:49;99377.00;;;5.33;54.76
30618;BME280;17384;51.214;9.202;2023-04-05T07:02:15;99389.09;;;5.62;52.92
30618;BME280;17384;51.214;9.202;2023-04-05T07:04:41;99378.47;;;5.93;52.00
30618;BME280;17384;51.214;9.202;2023-04-05T07:07:06;99369.88;;;5.97;52.57
30618;BME280;17384;51.214;9.202;2023-04-05T07:09:32;99382.09;;;6.24;51.63
30618;BME280;17384;51.214;9.202;2023-04-05T07:11:58;99388.91;;;6.51;50.37
30618;BME280;17384;51.214;9.202;2023-04-05T07:14:24;99386.78;;;6.69;49.79
30618;BME280;17384;51.214;9.202;2023-04-05T07:16:50;99382.03;;;7.02;48.19
30618;BME280;17384;51.214;9.202;2023-04-05T07:19:17;99372.81;;;7.20;46.95
30618;BME280;17384;51.214;9.202;2023-04-05T07:21:43;99364.88;;;7.18;47.05
30618;BME280;17384;51.214;9.202;2023-04-05T07:24:09;99352.13;;;7.35;47.11
30618;BME280;17384;51.214;9.202;2023-04-05T07:26:35;99358.31;;;7.58;47.89
30618;BME280;17384;51.214;9.202;2023-04-05T07:29:02;99355.50;;;7.52;46.15
30618;BME280;17384;51.214;9.202;2023-04-05T07:31:28;99369.06;;;7.43;45.01
30618;BME280;17384;51.214;9.202;2023-04-05T07:33:53;99376.75;;;7.55;41.80
30618;BME280;17384;51.214;9.202;2023-04-05T07:36:19;99365.53;;;7.95;42.15
30618;BME280;17384;51.214;9.202;2023-04-05T07:38:45;99361.53;;;7.76;40.64
30618;BME280;17384;51.214;9.202;2023-04-05T07:41:10;99356.16;;;8.06;40.53
30618;BME280;17384;51.214;9.202;2023-04-05T07:43:36;99356.22;;;7.98;42.25
30618;BME280;17384;51.214;9.202;2023-04-05T07:46:03;99362.47;;;7.98;42.00
30618;BME280;17384;51.214;9.202;2023-04-05T07:48:29;99357.25;;;7.82;42.99
30618;BME280;17384;51.214;9.202;2023-04-05T07:50:55;99356.63;;;7.20;42.21
30618;BME280;17384;51.214;9.202;2023-04-05T07:53:20;99360.16;;;6.66;44.46
30618;BME280;17384;51.214;9.202;2023-04-05T07:55:46;99365.38;;;7.22;44.04
30618;BME280;17384;51.214;9.202;2023-04-05T07:58:12;99365.38;;;7.22;44.18
30618;BME280;17384;51.214;9.202;2023-04-05T08:00:38;99359.88;;;7.38;42.80
30618;BME280;17384;51.214;9.202;2023-04-05T08:03:03;99365.97;;;7.32;42.90
30618;BME280;17384;51.214;9.202;2023-04-05T08:05:29;99370.94;;;7.80;44.31
30618;BME280;17384;51.214;9.202;2023-04-05T08:07:55;99362.44;;;7.69;42.79
30618;BME280;17384;51.214;9.202;2023-04-05T08:10:25;99359.91;;;8.20;41.76
30618;BME280;17384;51.214;9.202;2023-04-05T08:12:51;99361.16;;;7.42;42.91
30618;BME280;17384;51.214;9.202;2023-04-05T08:15:17;99361.16;;;7.42;41.76
30618;BME280;17384;51.214;9.202;2023-04-05T08:17:42;99353.72;;;7.81;40.52
30618;BME280;17384;51.214;9.202;2023-04-05T08:20:08;99363.78;;;7.88;39.94
30618;BME280;17384;51.214;9.202;2023-04-05T08:22:34;99372.66;;;7.59;41.33
30618;BME280;17384;51.214;9.202;2023-04-05T08:24:59;99361.78;;;8.34;39.39
30618;BME280;17384;51.214;9.202;2023-04-05T08:27:25;99356.97;;;9.01;38.85
30618;BME280;17384;51.214;9.202;2023-04-05T08:29:50;99349.06;;;9.21;38.94
30618;BME280;17384;51.214;9.202;2023-04-05T08:32:16;99354.91;;;9.03;38.25
30618;BME280;17384;51.214;9.202;2023-04-05T08:34:44;99360.91;;;8.99;37.21
30618;BME280;17384;51.214;9.202;2023-04-05T08:37:10;99349.75;;;9.51;37.25
30618;BME280;17384;51.214;9.202;2023-04-05T08:39:36;99350.84;;;8.93;36.72
30618;BME280;17384;51.214;9.202;2023-04-05T08:44:30;99349.75;;;9.08;34.69
30618;BME280;17384;51.214;9.202;2023-04-05T08:46:57;99336.84;;;8.89;36.90
30618;BME280;17384;51.214;9.202;2023-04-05T08:49:24;99343.66;;;9.00;36.20
30618;BME280;17384;51.214;9.202;2023-04-05T08:51:50;99343.56;;;9.36;37.20
30618;BME280;17384;51.214;9.202;2023-04-05T08:54:16;99350.91;;;9.42;36.45
30618;BME280;17384;51.214;9.202;2023-04-05T08:56:41;99345.69;;;9.40;36.17
30618;BME280;17384;51.214;9.202;2023-04-05T08:59:15;99358.50;;;9.10;36.09
30618;BME280;17384;51.214;9.202;2023-04-05T09:01:45;99357.06;;;8.72;38.59
30618;BME280;17384;51.214;9.202;2023-04-05T09:04:14;99342.03;;;9.27;35.91
30618;BME280;17384;51.214;9.202;2023-04-05T09:06:40;99347.91;;;9.86;34.31
30618;BME280;17384;51.214;9.202;2023-04-05T09:09:10;99341.38;;;9.03;34.85
30618;BME280;17384;51.214;9.202;2023-04-05T09:11:37;99351.09;;;8.62;34.69
30618;BME280;17384;51.214;9.202;2023-04-05T09:14:07;99344.72;;;9.05;33.63
30618;BME280;17384;51.214;9.202;2023-04-05T09:16:36;99352.03;;;9.75;35.53
30618;BME280;17384;51.214;9.202;2023-04-05T09:19:03;99338.75;;;9.59;33.35
30618;BME280;17384;51.214;9.202;2023-04-05T09:21:28;99350.38;;;9.32;34.85
30618;BME280;17384;51.214;9.202;2023-04-05T09:23:54;99347.94;;;9.37;35.71
30618;BME280;17384;51.214;9.202;2023-04-05T09:26:22;99338.66;;;9.03;34.11
30618;BME280;17384;51.214;9.202;2023-04-05T09:28:48;99345.50;;;8.63;34.96
30618;BME280;17384;51.214;9.202;2023-04-05T09:31:29;99349.91;;;9.22;35.08
30618;BME280;17384;51.214;9.202;2023-04-05T09:34:01;99341.13;;;8.98;34.13
30618;BME280;17384;51.214;9.202;2023-04-05T09:36:27;99352.63;;;8.35;33.61
30618;BME280;17384;51.214;9.202;2023-04-05T09:39:03;99347.69;;;8.38;33.54
30618;BME280;17384;51.214;9.202;2023-04-05T09:41:29;99338.44;;;7.89;34.95
30618;BME280;17384;51.214;9.202;2023-04-05T09:43:55;99349.09;;;8.34;32.47
30618;BME280;17384;51.214;9.202;2023-04-05T09:46:34;99333.13;;;8.10;35.62
30618;BME280;17384;51.214;9.202;2023-04-05T09:49:02;99335.00;;;8.90;34.58
30618;BME280;17384;51.214;9.202;2023-04-05T09:51:36;99337.09;;;8.73;34.44
30618;BME280;17384;51.214;9.202;2023-04-05T09:54:04;99338.97;;;8.72;35.74
30618;BME280;17384;51.214;9.202;2023-04-05T09:56:39;99330.53;;;9.03;32.75
30618;BME280;17384;51.214;9.202;2023-04-05T09:59:09;99330.81;;;9.30;31.72
30618;BME280;17384;51.214;9.202;2023-04-05T10:01:36;99319.34;;;10.11;31.68
30618;BME280;17384;51.214;9.202;2023-04-05T10:04:02;99323.53;;;9.58;31.64
30618;BME280;17384;51.214;9.202;2023-04-05T10:06:43;99320.72;;;10.01;30.51
30618;BME280;17384;51.214;9.202;2023-04-05T10:09:10;99324.91;;;10.31;31.83
30618;BME280;17384;51.214;9.202;2023-04-05T10:11:41;99334.69;;;9.98;31.40
30618;BME280;17384;51.214;9.202;2023-04-05T10:14:09;99323.75;;;9.84;31.48
30618;BME280;17384;51.214;9.202;2023-04-05T10:16:41;99320.47;;;9.40;33.18
30618;BME280;17384;51.214;9.202;2023-04-05T10:19:20;99329.00;;;8.94;32.31
30618;BME280;17384;51.214;9.202;2023-04-05T10:21:50;99315.34;;;7.86;34.12
30618;BME280;17384;51.214;9.202;2023-04-05T10:29:50;99298.66;;;9.20;33.46
30618;BME280;17384;51.214;9.202;2023-04-05T10:35:17;99313.28;;;10.50;31.27
30618;BME280;17384;51.214;9.202;2023-04-05T10:40:20;99317.88;;;10.50;32.85
30618;BME280;17384;51.214;9.202;2023-04-05T10:42:47;99299.28;;;10.06;32.13
30618;BME280;17384;51.214;9.202;2023-04-05T10:45:16;99294.97;;;10.59;32.12
30618;BME280;17384;51.214;9.202;2023-04-05T10:47:52;99284.03;;;9.14;31.86
30618;BME280;17384;51.214;9.202;2023-04-05T10:50:23;99306.94;;;7.96;36.27
30618;BME280;17384;51.214;9.202;2023-04-05T10:52:50;99292.22;;;8.13;33.75
30618;BME280;17384;51.214;9.202;2023-04-05T10:55:17;99298.34;;;8.22;32.59
30618;BME280;17384;51.214;9.202;2023-04-05T10:57:44;99293.22;;;9.41;34.11
30618;BME280;17384;51.214;9.202;2023-04-05T11:00:11;99290.81;;;10.70;32.60
30618;BME280;17384;51.214;9.202;2023-04-05T11:02:38;99284.63;;;11.09;30.04
30618;BME280;17384;51.214;9.202;2023-04-05T11:05:04;99283.41;;;11.58;31.77
30618;BME280;17384;51.214;9.202;2023-04-05T11:07:43;99275.44;;;9.95;30.51
30618;BME280;17384;51.214;9.202;2023-04-05T11:10:16;99270.56;;;9.49;31.57
30618;BME280;17384;51.214;9.202;2023-04-05T11:20:53;99258.13;;;11.17;31.39
30618;BME280;17384;51.214;9.202;2023-04-05T11:23:23;99272.88;;;10.75;29.39
30618;BME280;17384;51.214;9.202;2023-04-05T11:28:29;99260.63;;;11.06;28.57
30618;BME280;17384;51.214;9.202;2023-04-05T11:30:56;99254.13;;;11.27;31.03
30618;BME280;17384;51.214;9.202;2023-04-05T11:33:52;99248.53;;;9.59;32.37
30618;BME280;17384;51.214;9.202;2023-04-05T11:36:51;99257.91;;;10.25;29.88
30618;BME280;17384;51.214;9.202;2023-04-05T11:39:33;99246.50;;;9.67;31.59
30618;BME280;17384;51.214;9.202;2023-04-05T11:42:05;99251.47;;;10.33;30.34
30618;BME280;17384;51.214;9.202;2023-04-05T11:44:42;99246.63;;;11.02;29.81
30618;BME280;17384;51.214;9.202;2023-04-05T11:47:08;99247.75;;;10.47;28.06
30618;BME280;17384;51.214;9.202;2023-04-05T11:49:36;99228.22;;;11.24;29.22
30618;BME280;17384;51.214;9.202;2023-04-05T11:52:18;99234.47;;;11.71;28.81
30618;BME280;17384;51.214;9.202;2023-04-05T11:54:48;99237.84;;;10.87;27.29
30618;BME280;17384;51.214;9.202;2023-04-05T11:57:25;99228.44;;;11.36;27.73
30618;BME280;17384;51.214;9.202;2023-04-05T11:59:52;99235.97;;;12.31;26.78
30618;BME280;17384;51.214;9.202;2023-04-05T12:02:18;99235.38;;;12.61;26.44
30618;BME280;17384;51.214;9.202;2023-04-05T12:04:53;99223.41;;;13.00;28.04
30618;BME280;17384;51.214;9.202;2023-04-05T12:07:19;99223.31;;;12.50;28.21
30618;BME280;17384;51.214;9.202;2023-04-05T12:10:08;99212.31;;;12.70;26.94
30618;BME280;17384;51.214;9.202;2023-04-05T12:12:45;99213.09;;;12.01;26.49
30618;BME280;17384;51.214;9.202;2023-04-05T12:15:20;99210.31;;;12.14;28.93
30618;BME280;17384;51.214;9.202;2023-04-05T12:17:48;99223.84;;;9.75;27.99
30618;BME280;17384;51.214;9.202;2023-04-05T12:20:19;99215.88;;;10.14;28.96
30618;BME280;17384;51.214;9.202;2023-04-05T12:22:47;99210.72;;;11.20;27.51
30618;BME280;17384;51.214;9.202;2023-04-05T12:25:14;99199.38;;;11.49;27.46
30618;BME280;17384;51.214;9.202;2023-04-05T12:27:40;99198.31;;;11.70;26.12
30618;BME280;17384;51.214;9.202;2023-04-05T12:30:15;99201.94;;;12.09;27.70
30618;BME280;17384;51.214;9.202;2023-04-05T12:35:23;99201.03;;;12.98;25.27
30618;BME280;17384;51.214;9.202;2023-04-05T12:37:57;99200.53;;;12.00;25.29
30618;BME280;17384;51.214;9.202;2023-04-05T12:40:24;99201.09;;;11.04;26.10
30618;BME280;17384;51.214;9.202;2023-04-05T12:42:50;99189.31;;;11.63;25.97
30618;BME280;17384;51.214;9.202;2023-04-05T12:45:16;99192.41;;;12.38;26.33
30618;BME280;17384;51.214;9.202;2023-04-05T12:47:56;99196.75;;;13.08;25.34
30618;BME280;17384;51.214;9.202;2023-04-05T12:50:29;99189.84;;;12.49;25.07
30618;BME280;17384;51.214;9.202;2023-04-05T12:53:19;99180.47;;;12.39;24.92
30618;BME280;17384;51.214;9.202;2023-04-05T12:55:52;99180.34;;;12.27;24.74
30618;BME280;17384;51.214;9.202;2023-04-05T12:58:20;99169.31;;;12.09;26.02
30618;BME280;17384;51.214;9.202;2023-04-05T13:00:47;99178.31;;;12.47;26.55
30618;BME280;17384;51.214;9.202;2023-04-05T13:03:20;99178.31;;;12.47;26.12
30618;BME280;17384;51.214;9.202;2023-04-05T13:05:46;99176.53;;;11.77;26.37
30618;BME280;17384;51.214;9.202;2023-04-05T13:08:15;99168.09;;;10.81;26.87
30618;BME280;17384;51.214;9.202;2023-04-05T13:10:45;99158.28;;;10.80;28.62
30618;BME280;17384;51.214;9.202;2023-04-05T13:13:21;99167.38;;;11.58;27.21
30618;BME280;17384;51.214;9.202;2023-04-05T13:15:47;99165.47;;;11.65;28.27
30618;BME280;17384;51.214;9.202;2023-04-05T13:18:12;99163.72;;;12.73;26.63
30618;BME280;17384;51.214;9.202;2023-04-05T13:20:40;99163.28;;;10.83;27.78
30618;BME280;17384;51.214;9.202;2023-04-05T13:23:06;99161.31;;;11.56;27.49
30618;BME280;17384;51.214;9.202;2023-04-05T13:25:39;99146.16;;;10.76;28.98
30618;BME280;17384;51.214;9.202;2023-04-05T13:28:05;99155.38;;;10.01;28.08
30618;BME280;17384;51.214;9.202;2023-04-05T13:30:31;99148.66;;;10.97;28.43
30618;BME280;17384;51.214;9.202;2023-04-05T13:32:56;99141.69;;;11.54;29.00
30618;BME280;17384;51.214;9.202;2023-04-05T13:35:22;99121.19;;;11.58;28.76
30618;BME280;17384;51.214;9.202;2023-04-05T13:37:47;99126.63;;;12.09;28.54
30618;BME280;17384;51.214;9.202;2023-04-05T13:40:14;99139.94;;;11.86;27.78
30618;BME280;17384;51.214;9.202;2023-04-05T13:42:41;99130.44;;;11.31;28.00
30618;BME280;17384;51.214;9.202;2023-04-05T13:45:06;99129.28;;;10.94;27.80